createdAt,value
2023-01-02T00:00:35.031Z,18.73
2023-01-02T00:03:01.905Z,20.07
2023-01-02T00:05:28.711Z,19.27
2023-01-02T00:07:55.554Z,23.23
2023-01-02T00:10:22.261Z,26.55
2023-01-02T00:12:49.105Z,30.65
2023-01-02T00:15:15.921Z,39.93
2023-01-02T00:17:42.681Z,33.53
2023-01-02T00:20:10.079Z,29.98
2023-01-02T00:22:37.108Z,25.38
2023-01-02T00:25:04.715Z,27.30
2023-01-02T00:27:31.642Z,29.70
2023-01-02T00:29:58.313Z,28.80
2023-01-02T00:32:25.067Z,28.25
2023-01-02T00:34:51.831Z,29.15
2023-01-02T00:37:18.537Z,28.42
2023-01-02T00:39:45.295Z,28.87
2023-01-02T00:42:12.010Z,37.42
2023-01-02T00:44:38.733Z,30.75
2023-01-02T00:47:05.544Z,33.47
2023-01-02T00:49:32.339Z,32.10
2023-01-02T00:51:59.081Z,35.93
2023-01-02T00:54:25.863Z,39.35
2023-01-02T00:56:52.646Z,41.78
2023-01-02T00:59:19.407Z,42.75
2023-01-02T01:01:46.292Z,44.25
2023-01-02T01:04:15.073Z,51.63
2023-01-02T01:06:41.891Z,43.05
2023-01-02T01:09:08.622Z,39.90
2023-01-02T01:11:35.378Z,44.13
2023-01-02T01:14:02.131Z,48.03
2023-01-02T01:16:28.960Z,43.00
2023-01-02T01:18:57.213Z,65.95
2023-01-02T01:21:24.196Z,51.08
2023-01-02T01:23:52.629Z,56.90
2023-01-02T01:26:20.451Z,43.67
2023-01-02T01:28:47.464Z,46.57
2023-01-02T01:31:16.714Z,38.67
2023-01-02T01:33:44.531Z,41.10
2023-01-02T01:36:17.553Z,41.30
2023-01-02T01:38:45.049Z,41.85
2023-01-02T01:41:14.718Z,40.70
2023-01-02T01:43:45.707Z,40.20
2023-01-02T01:46:21.602Z,39.05
2023-01-02T01:48:53.377Z,43.55
2023-01-02T01:51:21.331Z,37.10
2023-01-02T01:53:52.626Z,37.90
2023-01-02T01:56:19.509Z,36.22
2023-01-02T01:58:46.573Z,40.72
2023-01-02T02:01:16.983Z,44.47
2023-01-02T02:03:48.102Z,30.77
2023-01-02T02:06:16.649Z,88.17
2023-01-02T02:09:01.671Z,101.78
2023-01-02T02:11:28.613Z,116.95
2023-01-02T02:13:59.668Z,52.95
2023-01-02T02:16:53.675Z,58.97
2023-01-02T02:19:57.278Z,60.03
2023-01-02T02:22:41.916Z,58.33
2023-01-02T02:25:42.292Z,47.92
2023-01-02T02:28:27.650Z,50.95
2023-01-02T02:31:13.277Z,50.35
2023-01-02T02:34:08.991Z,62.40
2023-01-02T02:36:45.226Z,75.15
2023-01-02T02:39:35.938Z,100.63
2023-01-02T02:42:11.973Z,112.20
2023-01-02T02:44:49.854Z,126.28
2023-01-02T02:47:27.862Z,121.73
2023-01-02T02:50:13.513Z,74.28
2023-01-02T02:53:02.533Z,88.45
2023-01-02T02:55:38.785Z,110.57
2023-01-02T02:58:06.288Z,139.90
2023-01-02T03:00:34.077Z,133.93
2023-01-02T03:03:00.957Z,131.07
2023-01-02T03:05:42.846Z,135.85
2023-01-02T03:08:47.193Z,124.07
2023-01-02T03:11:15.440Z,129.82
2023-01-02T03:14:07.057Z,105.90
2023-01-02T03:16:40.626Z,101.53
2023-01-02T03:19:20.485Z,73.95
2023-01-02T03:22:22.061Z,88.03
2023-01-02T03:24:52.658Z,56.63
2023-01-02T03:27:24.739Z,85.00
2023-01-02T03:30:08.056Z,60.72
2023-01-02T03:32:43.637Z,63.92
2023-01-02T03:35:17.747Z,79.95
2023-01-02T03:37:48.908Z,159.52
2023-01-02T03:40:25.013Z,100.43
2023-01-02T03:42:58.472Z,106.25
2023-01-02T03:45:31.226Z,113.47
2023-01-02T03:48:16.796Z,143.45
2023-01-02T03:50:50.887Z,136.18
2023-01-02T03:53:17.837Z,138.60
2023-01-02T03:56:00.611Z,125.28
2023-01-02T03:58:57.808Z,175.90
2023-01-02T04:01:51.606Z,163.75
2023-01-02T04:04:54.574Z,129.70
2023-01-02T04:07:53.522Z,122.27
2023-01-02T04:10:21.815Z,124.50
2023-01-02T04:12:53.189Z,135.18
2023-01-02T04:15:23.984Z,181.80
2023-01-02T04:17:56.236Z,133.05
2023-01-02T04:20:30.198Z,173.20
2023-01-02T04:23:07.780Z,123.63
2023-01-02T04:25:45.147Z,107.40
2023-01-02T04:28:18.081Z,98.40
2023-01-02T04:30:51.748Z,108.57
2023-01-02T04:33:20.960Z,138.53
2023-01-02T04:35:47.789Z,123.05
2023-01-02T04:38:14.533Z,133.23
2023-01-02T04:40:41.521Z,100.80
2023-01-02T04:43:17.123Z,107.22
2023-01-02T04:45:43.824Z,81.73
2023-01-02T04:48:10.627Z,88.30
2023-01-02T04:50:37.587Z,111.95
2023-01-02T04:53:04.318Z,118.78
2023-01-02T04:55:31.093Z,88.47
2023-01-02T04:57:58.725Z,114.67
2023-01-02T05:00:28.437Z,130.95
2023-01-02T05:02:58.387Z,124.75
2023-01-02T05:05:25.147Z,120.75
2023-01-02T05:07:51.970Z,116.45
2023-01-02T05:10:18.769Z,86.93
2023-01-02T05:12:45.697Z,103.53
2023-01-02T05:15:12.565Z,119.93
2023-01-02T05:17:41.719Z,121.57
2023-01-02T05:20:11.067Z,110.25
2023-01-02T05:22:57.589Z,114.03
2023-01-02T05:25:25.427Z,113.10
2023-01-02T05:27:55.863Z,100.53
2023-01-02T05:30:23.616Z,119.93
2023-01-02T05:32:50.582Z,96.15
2023-01-02T05:35:17.592Z,93.93
2023-01-02T05:37:45.335Z,73.55
2023-01-02T05:40:13.112Z,102.75
2023-01-02T05:42:39.892Z,83.25
2023-01-02T05:45:07.310Z,119.20
2023-01-02T05:47:34.070Z,122.13
2023-01-02T05:50:00.901Z,100.32
2023-01-02T05:52:27.793Z,83.65
2023-01-02T05:54:54.569Z,79.38
2023-01-02T05:57:21.308Z,85.85
2023-01-02T05:59:48.019Z,73.43
2023-01-02T06:02:14.956Z,132.10
2023-01-02T06:04:41.874Z,145.40
2023-01-02T06:07:08.705Z,115.28
2023-01-02T06:09:35.581Z,140.48
2023-01-02T06:12:03.465Z,139.80
2023-01-02T06:14:30.255Z,135.82
2023-01-02T06:16:58.412Z,128.98
2023-01-02T06:19:25.114Z,94.57
2023-01-02T06:21:51.919Z,139.13
2023-01-02T06:24:18.709Z,96.07
2023-01-02T06:26:45.461Z,135.52
2023-01-02T06:29:12.341Z,144.27
2023-01-02T06:31:40.106Z,170.52
2023-01-02T06:34:10.120Z,151.27
2023-01-02T06:36:36.798Z,139.93
2023-01-02T06:39:04.933Z,131.57
2023-01-02T06:41:31.909Z,172.70
2023-01-02T06:43:58.653Z,117.70
2023-01-02T06:46:25.530Z,164.63
2023-01-02T06:48:52.728Z,172.40
2023-01-02T06:51:22.459Z,189.80
2023-01-02T06:53:49.977Z,115.88
2023-01-02T06:56:18.335Z,101.93
2023-01-02T06:58:45.220Z,151.65
2023-01-02T07:01:15.204Z,158.43
2023-01-02T07:03:42.205Z,122.35
2023-01-02T07:06:13.880Z,122.53
2023-01-02T07:08:40.859Z,113.95
2023-01-02T07:11:10.496Z,95.22
2023-01-02T07:13:37.761Z,118.57
2023-01-02T07:16:06.549Z,125.28
2023-01-02T07:18:34.368Z,119.13
2023-01-02T07:21:01.201Z,87.07
2023-01-02T07:23:28.746Z,95.45
2023-01-02T07:25:57.661Z,98.23
2023-01-02T07:28:28.098Z,131.82
2023-01-02T07:31:03.304Z,129.95
2023-01-02T07:33:31.242Z,101.55
2023-01-02T07:35:59.351Z,118.93
2023-01-02T07:38:26.460Z,85.63
2023-01-02T07:40:53.337Z,110.85
2023-01-02T07:43:20.645Z,88.18
2023-01-02T07:45:50.381Z,100.82
2023-01-02T07:48:17.967Z,140.05
2023-01-02T07:50:44.954Z,117.97
2023-01-02T07:53:11.842Z,107.38
2023-01-02T07:55:38.719Z,118.55
2023-01-02T07:58:07.378Z,79.57
2023-01-02T08:00:34.275Z,96.10
2023-01-02T08:03:01.402Z,76.43
2023-01-02T08:05:28.179Z,79.50
2023-01-02T08:07:55.044Z,74.40
2023-01-02T08:10:21.915Z,73.28
2023-01-02T08:12:48.685Z,96.68
2023-01-02T08:15:15.521Z,112.53
2023-01-02T08:17:42.353Z,83.05
2023-01-02T08:20:10.433Z,101.22
2023-01-02T08:22:37.643Z,81.43
2023-01-02T08:25:04.796Z,82.70
2023-01-02T08:27:31.687Z,87.43
2023-01-02T08:29:58.453Z,115.82
2023-01-02T08:32:25.328Z,91.43
2023-01-02T08:34:52.024Z,103.30
2023-01-02T08:37:18.854Z,79.57
2023-01-02T08:39:45.608Z,108.33
2023-01-02T08:42:12.350Z,84.07
2023-01-02T08:44:39.104Z,133.60
2023-01-02T08:47:06.124Z,117.50
2023-01-02T08:49:32.869Z,112.40
2023-01-02T08:51:59.714Z,170.20
2023-01-02T08:54:26.473Z,89.97
2023-01-02T08:56:53.268Z,123.78
2023-01-02T08:59:20.085Z,109.65
2023-01-02T09:01:46.953Z,114.25
2023-01-02T09:04:14.006Z,153.83
2023-01-02T09:06:42.990Z,116.55
2023-01-02T09:09:12.414Z,216.18
2023-01-02T09:11:52.453Z,179.82
2023-01-02T09:14:21.541Z,145.48
2023-01-02T09:16:49.738Z,120.90
2023-01-02T09:19:17.216Z,163.07
2023-01-02T09:21:44.013Z,125.97
2023-01-02T09:24:11.380Z,132.73
2023-01-02T09:26:38.344Z,180.40
2023-01-02T09:29:05.389Z,109.77
2023-01-02T09:31:32.386Z,120.82
2023-01-02T09:33:59.363Z,161.90
2023-01-02T09:36:26.192Z,89.60
2023-01-02T09:38:56.057Z,95.80
2023-01-02T09:41:26.998Z,119.47
2023-01-02T09:44:00.100Z,102.55
2023-01-02T09:46:42.871Z,74.38
2023-01-02T09:49:13.144Z,49.22
2023-01-02T09:51:40.329Z,90.15
2023-01-02T09:54:19.867Z,93.73
2023-01-02T09:56:51.318Z,126.45
2023-01-02T09:59:48.014Z,99.75
2023-01-02T10:02:37.937Z,96.75
2023-01-02T10:05:41.120Z,64.07
2023-01-02T10:08:27.939Z,87.87
2023-01-02T10:11:08.729Z,88.47
2023-01-02T10:16:33.769Z,99.43
2023-01-02T10:19:06.032Z,137.00
2023-01-02T10:21:36.296Z,68.53
2023-01-02T10:24:13.463Z,74.30
2023-01-02T10:26:46.945Z,96.47
2023-01-02T10:29:30.257Z,140.18
2023-01-02T10:32:06.999Z,77.53
2023-01-02T10:35:02.164Z,189.00
2023-01-02T10:37:29.190Z,71.57
2023-01-02T10:39:55.928Z,57.75
2023-01-02T10:42:22.972Z,61.13
2023-01-02T10:44:51.211Z,111.32
2023-01-02T10:47:26.850Z,66.83
2023-01-02T10:49:54.303Z,88.38
2023-01-02T10:52:30.052Z,81.05
2023-01-02T10:55:00.531Z,64.07
2023-01-02T10:57:44.286Z,106.68
2023-01-02T11:00:25.654Z,57.30
2023-01-02T11:03:00.209Z,130.35
2023-01-02T11:05:30.180Z,101.85
2023-01-02T11:07:57.917Z,102.93
2023-01-02T11:10:37.452Z,62.88
2023-01-02T11:13:13.082Z,28.83
2023-01-02T11:15:58.256Z,42.30
2023-01-02T11:18:31.733Z,52.00
2023-01-02T11:21:04.353Z,43.22
2023-01-02T11:23:41.924Z,34.47
2023-01-02T11:26:23.447Z,34.87
2023-01-02T11:28:53.242Z,46.80
2023-01-02T11:31:21.609Z,38.42
2023-01-02T11:33:49.033Z,28.70
2023-01-02T11:36:18.618Z,25.70
2023-01-02T11:38:53.927Z,26.70
2023-01-02T11:41:58.973Z,22.63
2023-01-02T11:44:46.382Z,36.65
2023-01-02T11:47:14.716Z,36.65
2023-01-02T11:49:48.641Z,37.08
2023-01-02T11:52:30.992Z,37.07
2023-01-02T11:55:00.702Z,35.13
2023-01-02T11:57:38.410Z,24.50
2023-01-02T12:00:13.002Z,60.03
2023-01-02T12:02:45.577Z,43.95
2023-01-02T12:05:15.418Z,52.13
2023-01-02T12:07:46.943Z,54.90
2023-01-02T12:10:37.229Z,51.42
2023-01-02T12:13:51.217Z,47.95
2023-01-02T12:16:44.279Z,60.30
2023-01-02T12:19:22.920Z,79.77
2023-01-02T12:22:18.217Z,37.35
2023-01-02T12:24:53.869Z,34.70
2023-01-02T12:27:46.159Z,41.67
2023-01-02T12:30:19.438Z,61.30
2023-01-02T12:33:11.147Z,66.67
2023-01-02T12:35:59.646Z,55.97
2023-01-02T12:39:00.648Z,87.97
2023-01-02T12:42:00.801Z,56.30
2023-01-02T12:44:49.900Z,79.28
2023-01-02T12:47:28.397Z,86.27
2023-01-02T12:50:26.354Z,75.95
2023-01-02T12:53:06.907Z,79.93
2023-01-02T12:55:54.870Z,63.33
2023-01-02T12:58:24.241Z,93.35
2023-01-02T13:01:00.004Z,68.97
2023-01-02T13:04:05.119Z,71.60
2023-01-02T13:06:43.568Z,92.72
2023-01-02T13:09:45.456Z,86.78
2023-01-02T13:12:18.766Z,84.60
2023-01-02T13:15:14.562Z,73.17
2023-01-02T13:17:47.471Z,69.90
2023-01-02T13:20:20.337Z,80.20
2023-01-02T13:23:06.007Z,82.68
2023-01-02T13:25:33.743Z,105.43
2023-01-02T13:28:05.824Z,70.07
2023-01-02T13:30:35.540Z,108.05
2023-01-02T13:33:04.388Z,65.25
2023-01-02T13:35:36.126Z,47.47
2023-01-02T13:38:06.141Z,146.70
2023-01-02T13:40:34.240Z,42.00
2023-01-02T13:43:19.134Z,65.68
2023-01-02T13:45:53.573Z,43.33
2023-01-02T13:48:25.973Z,20.23
2023-01-02T13:50:59.984Z,62.22
2023-01-02T13:53:36.443Z,107.77
2023-01-02T13:56:07.492Z,83.13
2023-01-02T13:58:49.626Z,75.40
2023-01-02T14:01:22.571Z,90.03
2023-01-02T14:04:07.710Z,64.57
2023-01-02T14:06:45.177Z,73.90
2023-01-02T14:09:17.986Z,96.18
2023-01-02T14:12:01.304Z,69.53
2023-01-02T14:14:50.410Z,65.05
2023-01-02T14:17:45.628Z,93.78
2023-01-02T14:20:21.309Z,69.87
2023-01-02T14:22:51.404Z,82.47
2023-01-02T14:25:18.644Z,51.50
2023-01-02T14:28:05.495Z,55.78
2023-01-02T14:30:42.553Z,54.20
2023-01-02T14:33:24.425Z,90.67
2023-01-02T14:35:54.232Z,70.13
2023-01-02T14:38:27.349Z,78.60
2023-01-02T14:41:14.821Z,78.75
2023-01-02T14:43:42.356Z,80.47
2023-01-02T14:46:24.490Z,93.30
2023-01-02T14:49:25.285Z,97.07
2023-01-02T14:52:06.676Z,90.95
2023-01-02T14:54:51.629Z,63.85
2023-01-02T14:57:31.445Z,120.55
2023-01-02T15:00:01.588Z,73.70
2023-01-02T15:02:38.377Z,72.53
2023-01-02T15:05:13.532Z,77.40
2023-01-02T15:07:46.042Z,44.53
2023-01-02T15:10:17.706Z,43.90
2023-01-02T15:13:03.775Z,99.87
2023-01-02T15:15:45.413Z,58.42
2023-01-02T15:18:26.545Z,56.33
2023-01-02T15:20:54.472Z,71.15
2023-01-02T15:23:23.884Z,72.75
2023-01-02T15:25:51.538Z,69.37
2023-01-02T15:28:38.329Z,73.00
2023-01-02T15:31:13.680Z,60.63
2023-01-02T15:33:40.771Z,55.58
2023-01-02T15:36:17.995Z,42.72
2023-01-02T15:38:45.537Z,50.10
2023-01-02T15:41:20.090Z,52.58
2023-01-02T15:44:06.586Z,46.63
2023-01-02T15:46:34.415Z,36.53
2023-01-02T15:49:03.004Z,47.97
2023-01-02T15:51:39.863Z,44.07
2023-01-02T15:54:12.977Z,39.83
2023-01-02T15:56:40.527Z,58.13
2023-01-02T15:59:33.676Z,44.13
2023-01-02T16:02:02.850Z,51.35
2023-01-02T16:04:32.207Z,57.50
2023-01-02T16:07:14.209Z,32.30
2023-01-02T16:09:45.951Z,29.73
2023-01-02T16:12:20.367Z,33.38
2023-01-02T16:14:50.684Z,36.20
2023-01-02T16:17:29.920Z,36.17
2023-01-02T16:20:20.266Z,34.88
2023-01-02T16:22:48.677Z,41.67
2023-01-02T16:25:17.985Z,38.05
2023-01-02T16:27:52.609Z,34.20
2023-01-02T16:30:25.287Z,35.33
2023-01-02T16:32:52.285Z,41.92
2023-01-02T16:35:29.652Z,25.30
2023-01-02T16:38:02.387Z,22.35
2023-01-02T16:41:00.388Z,32.33
2023-01-02T16:43:17.105Z,23.67
2023-01-02T16:45:46.627Z,27.73
2023-01-02T16:48:16.497Z,31.58
2023-01-02T16:50:45.800Z,26.60
2023-01-02T16:53:25.623Z,35.63
2023-01-02T16:55:53.442Z,36.73
2023-01-02T16:58:21.749Z,34.03
2023-01-02T17:00:48.656Z,30.33
2023-01-02T17:03:21.878Z,30.67
2023-01-02T17:06:01.403Z,35.33
2023-01-02T17:08:32.429Z,36.37
2023-01-02T17:11:00.727Z,32.28
2023-01-02T17:13:28.948Z,29.83
2023-01-02T17:15:57.281Z,29.65
2023-01-02T17:18:25.168Z,32.20
2023-01-02T17:20:52.157Z,29.30
2023-01-02T17:23:19.614Z,30.02
2023-01-02T17:25:47.893Z,34.45
2023-01-02T17:28:15.986Z,41.13
2023-01-02T17:30:44.798Z,33.13
2023-01-02T17:33:13.042Z,29.40
2023-01-02T17:35:40.605Z,21.75
2023-01-02T17:38:07.822Z,21.15
2023-01-02T17:40:34.778Z,26.75
2023-01-02T17:43:01.938Z,25.83
2023-01-02T17:45:29.876Z,25.40
2023-01-02T17:48:30.941Z,22.55
2023-01-02T17:50:43.647Z,21.45
2023-01-02T17:53:10.433Z,30.40
2023-01-02T17:55:37.126Z,30.98
2023-01-02T17:58:04.146Z,41.53
2023-01-02T18:00:30.990Z,33.50
2023-01-02T18:02:57.816Z,42.15
2023-01-02T18:05:24.577Z,32.33
2023-01-02T18:07:51.341Z,29.08
2023-01-02T18:10:20.372Z,26.27
2023-01-02T18:12:49.996Z,28.90
2023-01-02T18:15:19.685Z,30.27
2023-01-02T18:17:47.378Z,32.72
2023-01-02T18:20:19.835Z,26.60
2023-01-02T18:22:49.889Z,29.77
2023-01-02T18:25:29.838Z,31.67
2023-01-02T18:28:00.405Z,28.38
2023-01-02T18:30:28.048Z,33.00
2023-01-02T18:33:07.761Z,33.38
2023-01-02T18:38:33.498Z,30.95
2023-01-02T18:41:00.714Z,32.40
2023-01-02T18:43:32.305Z,30.60
2023-01-02T18:46:09.444Z,34.53
2023-01-02T18:48:36.359Z,43.77
2023-01-02T18:51:03.083Z,29.90
2023-01-02T18:53:39.162Z,36.47
2023-01-02T18:56:17.047Z,36.42
2023-01-02T18:58:51.401Z,146.30
2023-01-02T19:01:24.937Z,42.83
2023-01-02T19:03:58.094Z,41.13
2023-01-02T19:06:27.825Z,36.50
2023-01-02T19:09:06.186Z,38.83
2023-01-02T19:11:52.889Z,46.03
2023-01-02T19:14:23.306Z,33.10
2023-01-02T19:17:04.929Z,31.52
2023-01-02T19:19:38.589Z,27.13
2023-01-02T19:22:18.934Z,24.15
2023-01-02T19:24:46.257Z,28.50
2023-01-02T19:27:37.094Z,26.90
2023-01-02T19:30:45.608Z,34.30
2023-01-02T19:33:31.094Z,42.95
2023-01-02T19:36:01.353Z,49.22
2023-01-02T19:38:31.798Z,40.60
2023-01-02T19:41:01.274Z,38.30
2023-01-02T19:43:28.129Z,62.00
2023-01-02T19:45:55.120Z,46.85
2023-01-02T19:48:22.038Z,49.75
2023-01-02T19:50:48.895Z,76.43
2023-01-02T19:53:15.728Z,100.77
2023-01-02T19:55:42.469Z,57.50
2023-01-02T19:58:09.291Z,70.95
2023-01-02T20:00:36.161Z,39.10
2023-01-02T20:03:03.134Z,54.00
2023-01-02T20:05:30.083Z,38.80
2023-01-02T20:07:59.991Z,57.38
2023-01-02T20:10:26.873Z,81.55
2023-01-02T20:12:53.757Z,92.07
2023-01-02T20:15:26.534Z,77.25
2023-01-02T20:17:54.136Z,93.70
2023-01-02T20:20:24.829Z,77.47
2023-01-02T20:22:52.265Z,47.25
2023-01-02T20:25:23.852Z,27.60
2023-01-02T20:27:51.821Z,25.02
2023-01-02T20:30:24.006Z,28.37
2023-01-02T20:32:52.070Z,50.05
2023-01-02T20:35:18.760Z,63.95
2023-01-02T20:37:45.537Z,55.10
2023-01-02T20:40:12.462Z,110.75
2023-01-02T20:42:39.151Z,76.73
2023-01-02T20:45:06.473Z,92.95
2023-01-02T20:47:35.474Z,67.57
2023-01-02T20:50:04.752Z,84.30
2023-01-02T20:52:31.606Z,72.30
2023-01-02T20:54:58.854Z,80.73
2023-01-02T20:57:25.629Z,117.50
2023-01-02T20:59:52.420Z,80.53
2023-01-02T21:02:19.270Z,89.97
2023-01-02T21:04:46.170Z,75.13
2023-01-02T21:07:12.915Z,92.53
2023-01-02T21:09:39.688Z,72.45
2023-01-02T21:12:26.447Z,67.10
2023-01-02T21:14:53.220Z,85.40
2023-01-02T21:17:19.966Z,51.97
2023-01-02T21:19:46.707Z,88.30
2023-01-02T21:22:13.432Z,82.53
2023-01-02T21:24:40.155Z,72.50
2023-01-02T21:27:12.775Z,72.38
2023-01-02T21:29:40.311Z,69.50
2023-01-02T21:32:07.278Z,54.97
2023-01-02T21:34:34.022Z,77.07
2023-01-02T21:37:00.759Z,67.15
2023-01-02T21:39:27.535Z,74.60
2023-01-02T21:42:12.761Z,88.47
2023-01-02T21:44:39.464Z,51.40
2023-01-02T21:47:06.324Z,80.00
2023-01-02T21:49:33.385Z,49.35
2023-01-02T21:52:00.346Z,52.63
2023-01-02T21:54:27.619Z,47.85
2023-01-02T21:56:54.444Z,64.20
2023-01-02T21:59:25.239Z,50.22
2023-01-02T22:01:53.388Z,51.95
2023-01-02T22:04:20.907Z,43.35
2023-01-02T22:07:29.353Z,43.97
2023-01-02T22:09:34.775Z,42.67
2023-01-02T22:12:01.662Z,47.83
2023-01-02T22:14:32.853Z,43.08
2023-01-02T22:17:02.057Z,55.25
2023-01-02T22:19:29.817Z,25.63
2023-01-02T22:21:57.486Z,37.67
2023-01-02T22:24:27.051Z,35.40
2023-01-02T22:26:56.414Z,26.90
2023-01-02T22:29:33.081Z,39.90
2023-01-02T22:32:11.633Z,36.95
2023-01-02T22:34:43.269Z,37.43
2023-01-02T22:37:21.835Z,21.40
2023-01-02T22:39:49.370Z,22.27
2023-01-02T22:43:05.385Z,29.95
2023-01-02T22:45:45.290Z,31.50
2023-01-02T22:48:36.965Z,42.07
2023-01-02T22:51:10.819Z,30.13
2023-01-02T22:53:39.100Z,65.55
2023-01-02T22:56:13.070Z,70.72
2023-01-02T22:58:40.000Z,49.40
2023-01-02T23:01:16.676Z,59.30
2023-01-02T23:03:45.187Z,39.72
2023-01-02T23:06:15.824Z,70.53
2023-01-02T23:08:46.804Z,51.22
2023-01-02T23:11:15.863Z,92.28
2023-01-02T23:13:43.251Z,53.50
2023-01-02T23:16:28.962Z,84.22
2023-01-02T23:19:14.433Z,42.33
2023-01-02T23:21:47.338Z,75.35
2023-01-02T23:24:17.858Z,60.17
2023-01-02T23:26:48.027Z,56.20
2023-01-02T23:29:15.999Z,45.35
2023-01-02T23:31:47.292Z,30.17
2023-01-02T23:34:16.800Z,26.33
2023-01-02T23:36:44.294Z,18.05
2023-01-02T23:39:13.656Z,15.37
2023-01-02T23:41:42.147Z,18.52
2023-01-02T23:44:10.071Z,17.08
2023-01-02T23:46:37.487Z,17.38
2023-01-02T23:49:05.167Z,19.92
2023-01-02T23:51:32.118Z,16.27
2023-01-02T23:53:59.663Z,17.05
2023-01-02T23:56:37.437Z,16.60
2023-01-02T23:59:07.713Z,14.57
